Rector, PA (15677)

10:01 PM EST on February 13, 2016 (GMT -0500)
Powdermill Nature Reserve | | Change Station
CLOSE
Current Station
Personal Weather Station
Location: Rector, PA
Elevation: 1312 ft
Nearby Weather Stations
Active Advisory: Wind Chill Advisory

Elev 1312 ft 40.16 °N, 79.27 °W | Updated 6 seconds ago

Overcast
Overcast
5.2 °F
Feels Like 5 °F
N
0.0
Wind Variable Wind from SW
Gusts 0.0 mph

Today
High -- | Low -- °F
--% Chance of Precip.
Yesterday
High -- | Low -- °F
Precip. -- in
Pressure 30.41 in
Visibility 10.0 miles
Clouds Mostly Cloudy 2300 ft
Overcast 4800 ft
Windchill 5 °F
Dew Point 1 °F
Humidity 83%
Rainfall 0.00 in
Snow Depth Not available.
7:13 AM 5:49 PM
Waxing Crescent, 37% visible
METAR KLBE 140247Z 00000KT 10SM BKN023 OVC048 M14/M17 A3041
Pressure 30.41 in
Visibility 10.0 miles
Clouds Mostly Cloudy 2300 ft
Overcast 4800 ft
Windchill 5 °F
Dew Point 1 °F
Humidity 83%
Rainfall 0.00 in
Snow Depth Not available.
7:13 AM 5:49 PM
Waxing Crescent, 37% visible
METAR KLBE 140247Z 00000KT 10SM BKN023 OVC048 M14/M17 A3041

10-Day Weather Forecast

Almanac

Astronomy

Feb. 13, 2016 Rise Set
Actual Time
Civil Twilight
Nautical Twilight
Astronomical Twilight
Moon
Length of Visible Light
Length of Day
Tomorrow will be .
, % of the Moon is Illuminated

Today's Extremes

State Highs State Lows

Community

WunderPhotos

Upload Photos

1,892,731 photos uploaded!

WunderBlog® & News

Nearby

Air Quality

  Air Quality AQ Index Pollutant
Not available.

Snow Depth

Station Depth Elevation

Earthquake Activity

City Distance Mag. Time & Date
Minimum magnitude displayed is 2.5.

Coastal Water Temperatures

Place Temperature

Stations

Nearby Weather Stations

Station Location Temp. Windchill Dew Point Humidity Wind Precip. Elev Updated Type
                   

Watches & Warnings

Wind Chill Advisory
Issued: 6:03 PM EST Feb. 13, 2016 – National Weather Service

... Wind Chill Advisory remains in effect until 9 am EST Sunday...

* wind chill... as low as 20 below. Temperature 3 below to 8 above
zero... and west wind 10 to 20 mph.

* Impact... frost bite and hypothermia are likely if precautions
are not taken.

Precautionary/preparedness actions...

A Wind Chill Advisory means that very cold air and strong wind will
combine to generate low wind chill indices. Make sure you dress
appropriately.



15